sensor_id;sensor_type;location;lat;lon;timestamp;P1;P2;P0
62778;PMS7003;48821;48.796;2.396;2023-04-24T00:00:12;5.50;4.50;3.50
62778;PMS7003;48821;48.796;2.396;2023-04-24T00:01:27;7.33;4.50;4.17
62778;PMS7003;48821;48.796;2.396;2023-04-24T00:02:42;4.50;4.50;4.00
62778;PMS7003;48821;48.796;2.396;2023-04-24T00:03:59;5.83;5.50;4.00
62778;PMS7003;48821;48.796;2.396;2023-04-24T00:05:12;6.67;6.17;3.50
62778;PMS7003;48821;48.796;2.396;2023-04-24T00:06:30;6.33;6.33;5.67
62778;PMS7003;48821;48.796;2.396;2023-04-24T00:07:45;6.83;6.17;3.67
62778;PMS7003;48821;48.796;2.396;2023-04-24T00:08:59;5.33;4.00;3.00
62778;PMS7003;48821;48.796;2.396;2023-04-24T00:10:13;5.83;5.33;3.83
62778;PMS7003;48821;48.796;2.396;2023-04-24T00:11:26;6.83;4.33;3.67
62778;PMS7003;48821;48.796;2.396;2023-04-24T00:12:40;5.33;4.17;3.17
62778;PMS7003;48821;48.796;2.396;2023-04-24T00:13:54;4.00;4.00;3.67
62778;PMS7003;48821;48.796;2.396;2023-04-24T00:15:07;3.67;3.67;2.67
62778;PMS7003;48821;48.796;2.396;2023-04-24T00:16:21;5.83;5.50;4.17
62778;PMS7003;48821;48.796;2.396;2023-04-24T00:17:35;3.33;3.33;3.00
62778;PMS7003;48821;48.796;2.396;2023-04-24T00:18:45;5.00;4.67;3.67
62778;PMS7003;48821;48.796;2.396;2023-04-24T00:20:00;5.67;4.83;3.83
62778;PMS7003;48821;48.796;2.396;2023-04-24T00:21:17;6.00;4.33;3.50
62778;PMS7003;48821;48.796;2.396;2023-04-24T00:22:30;6.17;4.83;3.50
62778;PMS7003;48821;48.796;2.396;2023-04-24T00:23:44;4.00;2.33;2.00
62778;PMS7003;48821;48.796;2.396;2023-04-24T00:24:57;4.83;4.50;4.17
62778;PMS7003;48821;48.796;2.396;2023-04-24T00:26:10;5.00;4.33;4.17
62778;PMS7003;48821;48.796;2.396;2023-04-24T00:27:24;5.67;3.00;3.00
62778;PMS7003;48821;48.796;2.396;2023-04-24T00:28:37;4.67;4.00;3.50
62778;PMS7003;48821;48.796;2.396;2023-04-24T00:29:50;6.17;4.33;3.17
62778;PMS7003;48821;48.796;2.396;2023-04-24T00:31:03;9.17;4.50;3.50
62778;PMS7003;48821;48.796;2.396;2023-04-24T00:32:17;6.17;4.50;3.50
62778;PMS7003;48821;48.796;2.396;2023-04-24T00:33:30;4.00;4.00;3.00
62778;PMS7003;48821;48.796;2.396;2023-04-24T00:34:43;5.83;4.33;3.33
62778;PMS7003;48821;48.796;2.396;2023-04-24T00:35:57;4.00;3.33;1.83
62778;PMS7003;48821;48.796;2.396;2023-04-24T00:37:10;4.33;4.00;2.83
62778;PMS7003;48821;48.796;2.396;2023-04-24T00:38:24;7.17;3.50;2.67
62778;PMS7003;48821;48.796;2.396;2023-04-24T00:39:37;4.50;4.50;4.17
62778;PMS7003;48821;48.796;2.396;2023-04-24T00:40:48;6.67;4.00;3.00
62778;PMS7003;48821;48.796;2.396;2023-04-24T00:42:02;4.17;3.50;3.00
62778;PMS7003;48821;48.796;2.396;2023-04-24T00:43:16;6.00;4.00;3.00
62778;PMS7003;48821;48.796;2.396;2023-04-24T00:44:30;4.83;2.67;1.83
62778;PMS7003;48821;48.796;2.396;2023-04-24T00:45:43;6.17;4.33;3.50
62778;PMS7003;48821;48.796;2.396;2023-04-24T00:46:56;6.00;4.00;3.50
62778;PMS7003;48821;48.796;2.396;2023-04-24T00:48:11;4.17;3.83;3.50
62778;PMS7003;48821;48.796;2.396;2023-04-24T00:49:24;3.50;3.50;3.33
62778;PMS7003;48821;48.796;2.396;2023-04-24T00:50:38;5.00;4.83;4.33
62778;PMS7003;48821;48.796;2.396;2023-04-24T00:51:52;5.33;4.67;3.17
62778;PMS7003;48821;48.796;2.396;2023-04-24T00:53:05;5.17;5.17;4.17
62778;PMS7003;48821;48.796;2.396;2023-04-24T00:54:19;4.00;3.67;3.33
62778;PMS7003;48821;48.796;2.396;2023-04-24T00:55:32;4.33;4.00;3.33
62778;PMS7003;48821;48.796;2.396;2023-04-24T00:56:46;6.00;4.33;3.33
62778;PMS7003;48821;48.796;2.396;2023-04-24T00:57:59;1.33;1.33;0.50
62778;PMS7003;48821;48.796;2.396;2023-04-24T00:59:13;3.67;3.50;2.50
62778;PMS7003;48821;48.796;2.396;2023-04-24T01:00:28;5.00;3.83;2.67
62778;PMS7003;48821;48.796;2.396;2023-04-24T01:01:42;5.33;4.17;3.83
62778;PMS7003;48821;48.796;2.396;2023-04-24T01:02:57;3.50;3.50;2.50
62778;PMS7003;48821;48.796;2.396;2023-04-24T01:04:14;5.17;3.67;2.67
62778;PMS7003;48821;48.796;2.396;2023-04-24T01:05:30;4.33;3.83;2.67
62778;PMS7003;48821;48.796;2.396;2023-04-24T01:06:44;5.83;4.50;3.83
62778;PMS7003;48821;48.796;2.396;2023-04-24T01:07:58;3.83;3.83;2.83
62778;PMS7003;48821;48.796;2.396;2023-04-24T01:09:12;4.00;3.33;2.17
62778;PMS7003;48821;48.796;2.396;2023-04-24T01:10:27;4.17;4.17;3.50
62778;PMS7003;48821;48.796;2.396;2023-04-24T01:11:43;4.33;4.17;3.67
62778;PMS7003;48821;48.796;2.396;2023-04-24T01:12:57;5.50;5.00;4.00
62778;PMS7003;48821;48.796;2.396;2023-04-24T01:14:11;4.67;3.00;2.17
62778;PMS7003;48821;48.796;2.396;2023-04-24T01:15:24;6.33;2.83;2.00
62778;PMS7003;48821;48.796;2.396;2023-04-24T01:16:37;3.50;3.50;2.33
62778;PMS7003;48821;48.796;2.396;2023-04-24T01:17:51;4.00;4.00;3.17
62778;PMS7003;48821;48.796;2.396;2023-04-24T01:19:05;5.17;4.50;3.33
62778;PMS7003;48821;48.796;2.396;2023-04-24T01:20:19;7.00;4.83;3.67
62778;PMS7003;48821;48.796;2.396;2023-04-24T01:21:34;4.50;4.00;3.17
62778;PMS7003;48821;48.796;2.396;2023-04-24T01:22:49;4.50;3.17;2.50
62778;PMS7003;48821;48.796;2.396;2023-04-24T01:24:03;3.83;3.00;2.50
62778;PMS7003;48821;48.796;2.396;2023-04-24T01:25:18;3.50;3.00;2.83
62778;PMS7003;48821;48.796;2.396;2023-04-24T01:26:31;3.50;3.50;3.33
62778;PMS7003;48821;48.796;2.396;2023-04-24T01:27:44;7.00;5.50;4.17
62778;PMS7003;48821;48.796;2.396;2023-04-24T01:28:58;4.00;4.00;3.50
62778;PMS7003;48821;48.796;2.396;2023-04-24T01:30:11;6.67;4.00;3.00
62778;PMS7003;48821;48.796;2.396;2023-04-24T01:31:25;4.67;3.50;2.50
62778;PMS7003;48821;48.796;2.396;2023-04-24T01:32:38;6.17;3.50;2.50
62778;PMS7003;48821;48.796;2.396;2023-04-24T01:33:53;7.50;3.67;2.67
62778;PMS7003;48821;48.796;2.396;2023-04-24T01:35:07;5.33;3.33;2.67
62778;PMS7003;48821;48.796;2.396;2023-04-24T01:36:20;6.83;4.00;3.33
62778;PMS7003;48821;48.796;2.396;2023-04-24T01:37:31;5.00;3.67;3.00
62778;PMS7003;48821;48.796;2.396;2023-04-24T01:38:45;5.00;3.67;2.67
62778;PMS7003;48821;48.796;2.396;2023-04-24T01:39:59;4.50;3.83;3.17
62778;PMS7003;48821;48.796;2.396;2023-04-24T01:41:12;3.33;3.33;2.33
62778;PMS7003;48821;48.796;2.396;2023-04-24T01:42:25;8.67;4.33;3.33
62778;PMS7003;48821;48.796;2.396;2023-04-24T01:43:39;3.33;3.33;2.50
62778;PMS7003;48821;48.796;2.396;2023-04-24T01:44:53;3.83;2.50;1.67
62778;PMS7003;48821;48.796;2.396;2023-04-24T01:46:07;6.17;4.17;3.00
62778;PMS7003;48821;48.796;2.396;2023-04-24T01:47:20;4.33;3.00;2.17
62778;PMS7003;48821;48.796;2.396;2023-04-24T01:48:34;7.33;5.50;3.67
62778;PMS7003;48821;48.796;2.396;2023-04-24T01:49:48;7.33;5.00;3.83
62778;PMS7003;48821;48.796;2.396;2023-04-24T01:51:02;4.00;3.67;2.67
62778;PMS7003;48821;48.796;2.396;2023-04-24T01:52:15;7.00;4.00;2.83
62778;PMS7003;48821;48.796;2.396;2023-04-24T01:53:27;3.00;3.00;2.00
62778;PMS7003;48821;48.796;2.396;2023-04-24T01:54:38;4.67;4.00;3.00
62778;PMS7003;48821;48.796;2.396;2023-04-24T01:55:52;3.50;3.50;2.50
62778;PMS7003;48821;48.796;2.396;2023-04-24T01:57:02;4.00;3.67;3.00
62778;PMS7003;48821;48.796;2.396;2023-04-24T01:58:13;4.00;3.00;3.00
62778;PMS7003;48821;48.796;2.396;2023-04-24T01:59:27;5.17;4.00;2.83
62778;PMS7003;48821;48.796;2.396;2023-04-24T02:00:41;3.50;3.50;2.67
62778;PMS7003;48821;48.796;2.396;2023-04-24T02:01:54;4.17;3.83;3.33
62778;PMS7003;48821;48.796;2.396;2023-04-24T02:03:07;3.50;3.50;2.33
62778;PMS7003;48821;48.796;2.396;2023-04-24T02:04:20;3.17;3.17;2.50
62778;PMS7003;48821;48.796;2.396;2023-04-24T02:05:34;4.67;4.00;3.00
62778;PMS7003;48821;48.796;2.396;2023-04-24T02:06:47;2.67;2.67;2.50
62778;PMS7003;48821;48.796;2.396;2023-04-24T02:08:00;4.17;3.33;2.83
62778;PMS7003;48821;48.796;2.396;2023-04-24T02:09:13;3.33;2.67;2.00
62778;PMS7003;48821;48.796;2.396;2023-04-24T02:10:27;5.17;4.50;4.00
62778;PMS7003;48821;48.796;2.396;2023-04-24T02:11:40;6.67;4.50;3.50
62778;PMS7003;48821;48.796;2.396;2023-04-24T02:12:53;2.50;2.50;1.83
62778;PMS7003;48821;48.796;2.396;2023-04-24T02:14:06;4.67;3.67;3.17
62778;PMS7003;48821;48.796;2.396;2023-04-24T02:15:20;3.50;2.00;1.50
62778;PMS7003;48821;48.796;2.396;2023-04-24T02:16:30;3.00;3.00;2.00
62778;PMS7003;48821;48.796;2.396;2023-04-24T02:17:45;3.17;3.17;2.50
62778;PMS7003;48821;48.796;2.396;2023-04-24T02:18:58;3.33;3.33;2.67
62778;PMS7003;48821;48.796;2.396;2023-04-24T02:20:11;2.00;1.67;1.50
62778;PMS7003;48821;48.796;2.396;2023-04-24T02:21:25;2.50;2.50;2.00
62778;PMS7003;48821;48.796;2.396;2023-04-24T02:22:38;4.50;3.50;2.67
62778;PMS7003;48821;48.796;2.396;2023-04-24T02:23:51;2.67;2.17;1.50
62778;PMS7003;48821;48.796;2.396;2023-04-24T02:25:04;3.17;3.17;2.33
62778;PMS7003;48821;48.796;2.396;2023-04-24T02:26:18;3.00;2.83;2.50
62778;PMS7003;48821;48.796;2.396;2023-04-24T02:27:31;3.67;2.50;2.17
62778;PMS7003;48821;48.796;2.396;2023-04-24T02:28:44;3.00;3.00;2.17
62778;PMS7003;48821;48.796;2.396;2023-04-24T02:29:58;3.00;2.67;2.50
62778;PMS7003;48821;48.796;2.396;2023-04-24T02:31:08;5.67;3.00;2.33
62778;PMS7003;48821;48.796;2.396;2023-04-24T02:32:19;5.67;4.67;4.00
62778;PMS7003;48821;48.796;2.396;2023-04-24T02:33:32;7.50;4.83;3.50
62778;PMS7003;48821;48.796;2.396;2023-04-24T02:34:46;5.67;3.83;3.17
62778;PMS7003;48821;48.796;2.396;2023-04-24T02:35:59;4.33;3.33;2.33
62778;PMS7003;48821;48.796;2.396;2023-04-24T02:37:12;3.67;3.17;2.17
62778;PMS7003;48821;48.796;2.396;2023-04-24T02:38:26;6.67;3.50;3.17
62778;PMS7003;48821;48.796;2.396;2023-04-24T02:39:39;3.33;2.67;1.83
62778;PMS7003;48821;48.796;2.396;2023-04-24T02:40:52;3.50;3.33;2.50
62778;PMS7003;48821;48.796;2.396;2023-04-24T02:42:05;3.50;3.50;3.33
62778;PMS7003;48821;48.796;2.396;2023-04-24T02:43:20;3.83;2.50;2.50
62778;PMS7003;48821;48.796;2.396;2023-04-24T02:44:34;4.50;3.50;2.50
62778;PMS7003;48821;48.796;2.396;2023-04-24T02:45:47;4.17;2.50;2.17
62778;PMS7003;48821;48.796;2.396;2023-04-24T02:47:00;5.67;3.50;2.50
62778;PMS7003;48821;48.796;2.396;2023-04-24T02:48:13;4.33;3.67;2.83
62778;PMS7003;48821;48.796;2.396;2023-04-24T02:49:26;3.83;3.83;2.83
62778;PMS7003;48821;48.796;2.396;2023-04-24T02:50:40;4.67;4.00;3.33
62778;PMS7003;48821;48.796;2.396;2023-04-24T02:51:53;5.17;3.83;3.00
62778;PMS7003;48821;48.796;2.396;2023-04-24T02:53:03;3.00;3.00;2.00
62778;PMS7003;48821;48.796;2.396;2023-04-24T02:54:15;3.00;3.00;2.00
62778;PMS7003;48821;48.796;2.396;2023-04-24T02:55:28;5.17;4.50;3.33
62778;PMS7003;48821;48.796;2.396;2023-04-24T02:56:42;3.00;3.00;2.67
62778;PMS7003;48821;48.796;2.396;2023-04-24T02:57:55;3.67;3.17;2.50
62778;PMS7003;48821;48.796;2.396;2023-04-24T02:59:08;5.17;5.17;3.50
62778;PMS7003;48821;48.796;2.396;2023-04-24T03:00:21;5.17;3.50;2.67
62778;PMS7003;48821;48.796;2.396;2023-04-24T03:01:34;3.00;3.00;2.67
62778;PMS7003;48821;48.796;2.396;2023-04-24T03:02:48;3.67;2.50;2.33
62778;PMS7003;48821;48.796;2.396;2023-04-24T03:03:59;3.33;3.33;3.00
62778;PMS7003;48821;48.796;2.396;2023-04-24T03:05:10;4.67;3.00;2.67
62778;PMS7003;48821;48.796;2.396;2023-04-24T03:06:24;6.83;5.33;3.00
62778;PMS7003;48821;48.796;2.396;2023-04-24T03:07:39;3.17;2.67;1.83
62778;PMS7003;48821;48.796;2.396;2023-04-24T03:08:53;2.67;2.67;1.67
62778;PMS7003;48821;48.796;2.396;2023-04-24T03:10:04;4.67;4.67;3.67
62778;PMS7003;48821;48.796;2.396;2023-04-24T03:11:18;4.83;3.50;3.00
62778;PMS7003;48821;48.796;2.396;2023-04-24T03:12:32;3.67;3.50;2.50
62778;PMS7003;48821;48.796;2.396;2023-04-24T03:13:45;6.00;4.00;3.00
62778;PMS7003;48821;48.796;2.396;2023-04-24T03:14:58;7.50;3.00;2.50
62778;PMS7003;48821;48.796;2.396;2023-04-24T03:16:11;5.50;3.00;2.17
62778;PMS7003;48821;48.796;2.396;2023-04-24T03:17:24;2.50;2.50;2.00
62778;PMS7003;48821;48.796;2.396;2023-04-24T03:18:38;3.67;2.67;2.17
62778;PMS7003;48821;48.796;2.396;2023-04-24T03:19:51;4.33;2.17;1.83
62778;PMS7003;48821;48.796;2.396;2023-04-24T03:21:04;6.50;4.00;3.00
62778;PMS7003;48821;48.796;2.396;2023-04-24T03:22:17;2.33;2.33;2.00
62778;PMS7003;48821;48.796;2.396;2023-04-24T03:23:31;7.50;4.00;3.00
62778;PMS7003;48821;48.796;2.396;2023-04-24T03:24:44;2.33;2.33;2.33
62778;PMS7003;48821;48.796;2.396;2023-04-24T03:25:57;7.00;5.00;4.00
62778;PMS7003;48821;48.796;2.396;2023-04-24T03:27:07;3.33;3.33;2.67
62778;PMS7003;48821;48.796;2.396;2023-04-24T03:28:18;7.67;5.00;3.67
62778;PMS7003;48821;48.796;2.396;2023-04-24T03:29:32;3.17;2.50;2.33
62778;PMS7003;48821;48.796;2.396;2023-04-24T03:30:45;4.33;3.00;2.33
62778;PMS7003;48821;48.796;2.396;2023-04-24T03:31:58;3.67;3.67;2.67
62778;PMS7003;48821;48.796;2.396;2023-04-24T03:33:12;3.17;3.17;2.67
62778;PMS7003;48821;48.796;2.396;2023-04-24T03:34:25;5.33;2.50;2.17
62778;PMS7003;48821;48.796;2.396;2023-04-24T03:35:38;3.67;2.50;1.50
62778;PMS7003;48821;48.796;2.396;2023-04-24T03:36:51;3.00;1.83;1.83
62778;PMS7003;48821;48.796;2.396;2023-04-24T03:38:05;2.83;2.83;2.33
62778;PMS7003;48821;48.796;2.396;2023-04-24T03:39:18;2.83;2.33;2.17
62778;PMS7003;48821;48.796;2.396;2023-04-24T03:40:31;4.00;3.33;2.67
62778;PMS7003;48821;48.796;2.396;2023-04-24T03:41:46;3.33;2.50;2.33
62778;PMS7003;48821;48.796;2.396;2023-04-24T03:42:59;3.00;2.50;2.17
62778;PMS7003;48821;48.796;2.396;2023-04-24T03:44:12;3.83;2.67;2.50
62778;PMS7003;48821;48.796;2.396;2023-04-24T03:45:25;6.67;5.50;4.00
62778;PMS7003;48821;48.796;2.396;2023-04-24T03:46:39;4.50;3.67;3.33
62778;PMS7003;48821;48.796;2.396;2023-04-24T03:47:52;4.00;2.33;1.50
62778;PMS7003;48821;48.796;2.396;2023-04-24T03:49:05;5.33;3.33;3.33
62778;PMS7003;48821;48.796;2.396;2023-04-24T03:50:18;3.67;3.67;2.67
62778;PMS7003;48821;48.796;2.396;2023-04-24T03:51:32;3.50;3.33;2.50
62778;PMS7003;48821;48.796;2.396;2023-04-24T03:52:45;5.17;3.50;2.50
62778;PMS7003;48821;48.796;2.396;2023-04-24T03:53:58;4.50;4.50;2.50
62778;PMS7003;48821;48.796;2.396;2023-04-24T03:55:11;3.83;3.17;1.67
62778;PMS7003;48821;48.796;2.396;2023-04-24T03:56:26;3.33;3.17;2.67
62778;PMS7003;48821;48.796;2.396;2023-04-24T03:57:41;3.83;3.00;2.17
62778;PMS7003;48821;48.796;2.396;2023-04-24T03:58:55;3.67;3.33;3.00
62778;PMS7003;48821;48.796;2.396;2023-04-24T04:00:08;3.50;3.50;2.50
62778;PMS7003;48821;48.796;2.396;2023-04-24T04:01:22;4.33;2.00;1.83
62778;PMS7003;48821;48.796;2.396;2023-04-24T04:02:36;0.50;0.50;0.50
62778;PMS7003;48821;48.796;2.396;2023-04-24T04:03:50;3.83;3.83;3.00
62778;PMS7003;48821;48.796;2.396;2023-04-24T04:05:03;4.83;4.17;3.17
62778;PMS7003;48821;48.796;2.396;2023-04-24T04:06:16;5.00;3.50;2.33
62778;PMS7003;48821;48.796;2.396;2023-04-24T04:07:30;3.00;2.33;2.00
62778;PMS7003;48821;48.796;2.396;2023-04-24T04:08:44;4.50;3.50;2.00
62778;PMS7003;48821;48.796;2.396;2023-04-24T04:09:57;7.00;3.00;2.17
62778;PMS7003;48821;48.796;2.396;2023-04-24T04:11:10;2.50;2.50;2.33
62778;PMS7003;48821;48.796;2.396;2023-04-24T04:12:23;3.83;3.83;3.50
62778;PMS7003;48821;48.796;2.396;2023-04-24T04:13:37;6.17;3.50;2.33
62778;PMS7003;48821;48.796;2.396;2023-04-24T04:14:50;7.33;4.33;3.50
62778;PMS7003;48821;48.796;2.396;2023-04-24T04:16:03;4.83;4.50;3.67
62778;PMS7003;48821;48.796;2.396;2023-04-24T04:17:14;5.67;4.00;3.33
62778;PMS7003;48821;48.796;2.396;2023-04-24T04:18:27;4.60;2.60;2.60
62778;PMS7003;48821;48.796;2.396;2023-04-24T04:19:40;5.00;3.17;2.50
62778;PMS7003;48821;48.796;2.396;2023-04-24T04:20:53;3.33;2.50;1.50
62778;PMS7003;48821;48.796;2.396;2023-04-24T04:22:07;4.00;4.00;2.50
62778;PMS7003;48821;48.796;2.396;2023-04-24T04:23:20;5.50;3.83;2.83
62778;PMS7003;48821;48.796;2.396;2023-04-24T04:24:34;5.00;4.50;3.33
62778;PMS7003;48821;48.796;2.396;2023-04-24T04:25:50;4.17;4.17;3.33
62778;PMS7003;48821;48.796;2.396;2023-04-24T04:27:04;4.17;4.00;3.17
62778;PMS7003;48821;48.796;2.396;2023-04-24T04:28:18;5.00;4.00;2.33
62778;PMS7003;48821;48.796;2.396;2023-04-24T04:29:32;6.50;4.67;3.67
62778;PMS7003;48821;48.796;2.396;2023-04-24T04:30:45;3.50;3.50;3.33
62778;PMS7003;48821;48.796;2.396;2023-04-24T04:31:59;6.00;5.50;3.83
62778;PMS7003;48821;48.796;2.396;2023-04-24T04:33:14;4.33;3.83;3.50
62778;PMS7003;48821;48.796;2.396;2023-04-24T04:34:27;4.50;4.00;3.33
62778;PMS7003;48821;48.796;2.396;2023-04-24T04:35:40;6.83;5.00;4.00
62778;PMS7003;48821;48.796;2.396;2023-04-24T04:36:53;6.00;4.00;3.33
62778;PMS7003;48821;48.796;2.396;2023-04-24T04:38:07;5.00;3.33;2.83
62778;PMS7003;48821;48.796;2.396;2023-04-24T04:39:21;7.17;3.33;2.50
62778;PMS7003;48821;48.796;2.396;2023-04-24T04:40:34;3.50;2.17;1.50
62778;PMS7003;48821;48.796;2.396;2023-04-24T04:41:47;3.67;3.67;3.17
62778;PMS7003;48821;48.796;2.396;2023-04-24T04:43:01;4.17;4.00;3.17
62778;PMS7003;48821;48.796;2.396;2023-04-24T04:44:15;5.00;5.00;3.00
62778;PMS7003;48821;48.796;2.396;2023-04-24T04:45:28;5.67;4.50;3.50
62778;PMS7003;48821;48.796;2.396;2023-04-24T04:46:41;3.50;3.50;3.00
62778;PMS7003;48821;48.796;2.396;2023-04-24T04:47:55;6.83;4.33;3.50
62778;PMS7003;48821;48.796;2.396;2023-04-24T04:49:08;6.33;5.00;3.50
62778;PMS7003;48821;48.796;2.396;2023-04-24T04:50:21;6.17;6.17;3.67
62778;PMS7003;48821;48.796;2.396;2023-04-24T04:51:35;5.50;4.17;2.67
62778;PMS7003;48821;48.796;2.396;2023-04-24T04:52:48;6.17;4.50;3.50
62778;PMS7003;48821;48.796;2.396;2023-04-24T04:54:02;7.00;5.33;3.67
62778;PMS7003;48821;48.796;2.396;2023-04-24T04:55:15;6.00;5.00;3.83
62778;PMS7003;48821;48.796;2.396;2023-04-24T04:56:28;4.17;3.17;3.00
62778;PMS7003;48821;48.796;2.396;2023-04-24T04:57:41;6.17;5.83;5.33
62778;PMS7003;48821;48.796;2.396;2023-04-24T04:58:55;5.83;4.33;3.33
62778;PMS7003;48821;48.796;2.396;2023-04-24T05:00:08;5.33;3.67;3.50
62778;PMS7003;48821;48.796;2.396;2023-04-24T05:01:23;7.17;6.17;5.17
62778;PMS7003;48821;48.796;2.396;2023-04-24T05:02:36;7.33;4.00;3.50
62778;PMS7003;48821;48.796;2.396;2023-04-24T05:03:50;7.50;4.33;3.50
62778;PMS7003;48821;48.796;2.396;2023-04-24T05:05:03;5.33;5.33;4.33
62778;PMS7003;48821;48.796;2.396;2023-04-24T05:06:17;6.83;5.83;4.17
62778;PMS7003;48821;48.796;2.396;2023-04-24T05:07:30;3.50;3.50;2.50
62778;PMS7003;48821;48.796;2.396;2023-04-24T05:08:40;3.67;3.33;3.33
62778;PMS7003;48821;48.796;2.396;2023-04-24T05:09:51;3.00;3.00;3.00
62778;PMS7003;48821;48.796;2.396;2023-04-24T05:11:02;5.00;5.00;4.67
62778;PMS7003;48821;48.796;2.396;2023-04-24T05:12:13;7.67;7.00;5.33
62778;PMS7003;48821;48.796;2.396;2023-04-24T05:13:26;6.00;5.67;4.00
62778;PMS7003;48821;48.796;2.396;2023-04-24T05:14:39;5.17;4.83;4.17
62778;PMS7003;48821;48.796;2.396;2023-04-24T05:15:53;5.00;3.67;3.33
62778;PMS7003;48821;48.796;2.396;2023-04-24T05:17:06;5.50;5.50;4.00
62778;PMS7003;48821;48.796;2.396;2023-04-24T05:18:19;5.00;4.50;3.50
62778;PMS7003;48821;48.796;2.396;2023-04-24T05:19:32;4.83;4.83;3.83
62778;PMS7003;48821;48.796;2.396;2023-04-24T05:20:48;5.83;5.50;4.50
62778;PMS7003;48821;48.796;2.396;2023-04-24T05:22:01;5.67;5.00;4.00
62778;PMS7003;48821;48.796;2.396;2023-04-24T05:23:17;6.50;5.00;4.33
62778;PMS7003;48821;48.796;2.396;2023-04-24T05:24:30;9.17;7.00;5.17
62778;PMS7003;48821;48.796;2.396;2023-04-24T05:25:43;6.67;5.17;4.00
62778;PMS7003;48821;48.796;2.396;2023-04-24T05:26:56;6.00;5.67;3.50
62778;PMS7003;48821;48.796;2.396;2023-04-24T05:28:11;6.17;6.17;4.50
62778;PMS7003;48821;48.796;2.396;2023-04-24T05:29:24;7.33;7.17;5.50
62778;PMS7003;48821;48.796;2.396;2023-04-24T05:30:38;5.17;5.17;4.50
62778;PMS7003;48821;48.796;2.396;2023-04-24T05:31:52;7.50;4.33;3.17
62778;PMS7003;48821;48.796;2.396;2023-04-24T05:33:05;7.33;6.17;4.50
62778;PMS7003;48821;48.796;2.396;2023-04-24T05:34:19;6.83;5.00;4.50
62778;PMS7003;48821;48.796;2.396;2023-04-24T05:35:32;5.67;5.33;4.33
62778;PMS7003;48821;48.796;2.396;2023-04-24T05:36:42;9.00;8.00;6.00
62778;PMS7003;48821;48.796;2.396;2023-04-24T05:37:53;10.67;6.00;5.00
62778;PMS7003;48821;48.796;2.396;2023-04-24T05:39:05;3.75;2.50;1.25
62778;PMS7003;48821;48.796;2.396;2023-04-24T05:40:18;7.17;5.50;4.00
62778;PMS7003;48821;48.796;2.396;2023-04-24T05:41:29;8.33;7.00;5.67
62778;PMS7003;48821;48.796;2.396;2023-04-24T05:42:40;9.00;7.00;5.00
62778;PMS7003;48821;48.796;2.396;2023-04-24T05:43:51;7.67;7.67;6.00
62778;PMS7003;48821;48.796;2.396;2023-04-24T05:45:02;9.00;8.00;6.33
62778;PMS7003;48821;48.796;2.396;2023-04-24T05:46:15;8.50;6.67;5.00
62778;PMS7003;48821;48.796;2.396;2023-04-24T05:47:29;8.17;6.83;4.50
62778;PMS7003;48821;48.796;2.396;2023-04-24T05:48:42;7.17;6.33;5.50
62778;PMS7003;48821;48.796;2.396;2023-04-24T05:49:52;8.33;7.67;6.00
62778;PMS7003;48821;48.796;2.396;2023-04-24T05:51:03;9.33;7.33;5.00
62778;PMS7003;48821;48.796;2.396;2023-04-24T05:52:14;11.00;9.67;7.00
62778;PMS7003;48821;48.796;2.396;2023-04-24T05:53:25;8.33;6.67;5.67
62778;PMS7003;48821;48.796;2.396;2023-04-24T05:54:39;8.50;6.67;4.50
62778;PMS7003;48821;48.796;2.396;2023-04-24T05:55:50;12.33;8.00;6.67
62778;PMS7003;48821;48.796;2.396;2023-04-24T05:57:01;9.33;7.33;6.33
62778;PMS7003;48821;48.796;2.396;2023-04-24T05:58:20;9.33;8.50;6.50
62778;PMS7003;48821;48.796;2.396;2023-04-24T05:59:34;8.33;8.33;6.67
62778;PMS7003;48821;48.796;2.396;2023-04-24T06:00:46;10.67;8.00;6.33
62778;PMS7003;48821;48.796;2.396;2023-04-24T06:01:57;8.33;6.67;6.00
62778;PMS7003;48821;48.796;2.396;2023-04-24T06:03:08;12.00;8.00;7.33
62778;PMS7003;48821;48.796;2.396;2023-04-24T06:04:19;10.33;8.33;7.00
62778;PMS7003;48821;48.796;2.396;2023-04-24T06:05:30;11.00;8.33;6.33
62778;PMS7003;48821;48.796;2.396;2023-04-24T06:06:41;11.33;8.00;6.67
62778;PMS7003;48821;48.796;2.396;2023-04-24T06:07:52;8.33;8.33;6.67
62778;PMS7003;48821;48.796;2.396;2023-04-24T06:09:04;8.50;7.50;6.00
62778;PMS7003;48821;48.796;2.396;2023-04-24T06:10:14;11.33;7.67;6.00
62778;PMS7003;48821;48.796;2.396;2023-04-24T06:11:25;12.00;9.33;7.00
62778;PMS7003;48821;48.796;2.396;2023-04-24T06:12:36;10.33;8.33;6.67
62778;PMS7003;48821;48.796;2.396;2023-04-24T06:13:47;8.33;8.00;6.33
62778;PMS7003;48821;48.796;2.396;2023-04-24T06:14:58;6.67;6.00;5.00
62778;PMS7003;48821;48.796;2.396;2023-04-24T06:16:09;10.00;9.67;7.00
62778;PMS7003;48821;48.796;2.396;2023-04-24T06:17:20;9.00;8.00;6.00
62778;PMS7003;48821;48.796;2.396;2023-04-24T06:18:33;9.60;8.60;7.00
62778;PMS7003;48821;48.796;2.396;2023-04-24T06:19:46;9.67;7.83;6.00
62778;PMS7003;48821;48.796;2.396;2023-04-24T06:20:59;9.00;8.00;5.83
62778;PMS7003;48821;48.796;2.396;2023-04-24T06:22:10;8.33;7.33;4.67
62778;PMS7003;48821;48.796;2.396;2023-04-24T06:23:21;11.33;9.67;7.33
62778;PMS7003;48821;48.796;2.396;2023-04-24T06:24:33;8.33;7.33;5.33
62778;PMS7003;48821;48.796;2.396;2023-04-24T06:25:44;10.00;8.00;6.00
62778;PMS7003;48821;48.796;2.396;2023-04-24T06:26:55;8.33;6.67;5.67
62778;PMS7003;48821;48.796;2.396;2023-04-24T06:28:10;6.33;5.67;4.50
62778;PMS7003;48821;48.796;2.396;2023-04-24T06:29:20;9.67;8.33;6.33
62778;PMS7003;48821;48.796;2.396;2023-04-24T06:30:31;9.00;9.00;7.00
62778;PMS7003;48821;48.796;2.396;2023-04-24T06:31:42;9.67;9.33;6.33
62778;PMS7003;48821;48.796;2.396;2023-04-24T06:32:53;10.67;9.00;7.00
62778;PMS7003;48821;48.796;2.396;2023-04-24T06:34:04;12.67;9.00;7.33
62778;PMS7003;48821;48.796;2.396;2023-04-24T06:35:15;9.00;8.00;5.67
62778;PMS7003;48821;48.796;2.396;2023-04-24T06:36:26;10.67;8.67;6.67
62778;PMS7003;48821;48.796;2.396;2023-04-24T06:37:41;8.50;8.00;6.00
62778;PMS7003;48821;48.796;2.396;2023-04-24T06:38:52;13.00;9.00;7.00
62778;PMS7003;48821;48.796;2.396;2023-04-24T06:40:03;6.67;5.67;3.00
62778;PMS7003;48821;48.796;2.396;2023-04-24T06:41:14;9.33;8.67;6.33
62778;PMS7003;48821;48.796;2.396;2023-04-24T06:42:25;10.33;9.00;7.00
62778;PMS7003;48821;48.796;2.396;2023-04-24T06:43:36;9.67;9.67;6.33
62778;PMS7003;48821;48.796;2.396;2023-04-24T06:44:47;9.67;7.67;6.33
62778;PMS7003;48821;48.796;2.396;2023-04-24T06:45:58;12.00;11.00;7.50
62778;PMS7003;48821;48.796;2.396;2023-04-24T06:47:09;16.00;11.50;8.00
62778;PMS7003;48821;48.796;2.396;2023-04-24T06:48:20;12.00;11.00;8.00
62778;PMS7003;48821;48.796;2.396;2023-04-24T06:49:31;11.33;10.00;7.33
62778;PMS7003;48821;48.796;2.396;2023-04-24T06:50:42;9.67;9.33;6.33
62778;PMS7003;48821;48.796;2.396;2023-04-24T06:51:52;12.33;9.00;6.67
62778;PMS7003;48821;48.796;2.396;2023-04-24T06:53:03;9.67;9.67;6.33
62778;PMS7003;48821;48.796;2.396;2023-04-24T06:54:14;14.67;11.33;8.67
62778;PMS7003;48821;48.796;2.396;2023-04-24T06:55:25;11.67;9.33;7.33
62778;PMS7003;48821;48.796;2.396;2023-04-24T06:56:36;10.00;9.50;7.00
62778;PMS7003;48821;48.796;2.396;2023-04-24T06:57:47;13.00;10.50;7.00
62778;PMS7003;48821;48.796;2.396;2023-04-24T06:58:58;13.00;11.50;8.00
62778;PMS7003;48821;48.796;2.396;2023-04-24T07:00:09;10.00;7.50;6.50
62778;PMS7003;48821;48.796;2.396;2023-04-24T07:01:20;10.67;10.33;8.33
62778;PMS7003;48821;48.796;2.396;2023-04-24T07:02:31;16.50;12.50;8.00
62778;PMS7003;48821;48.796;2.396;2023-04-24T07:03:42;9.00;9.00;7.00
62778;PMS7003;48821;48.796;2.396;2023-04-24T07:04:53;12.50;9.00;7.00
62778;PMS7003;48821;48.796;2.396;2023-04-24T07:06:05;14.00;10.00;7.00